createdAt,value
2022-09-28T00:00:10.292Z,98865.69
2022-09-28T00:02:36.603Z,98864.50
2022-09-28T00:05:02.954Z,98861.28
2022-09-28T00:07:29.532Z,98858.47
2022-09-28T00:09:55.741Z,98856.47
2022-09-28T00:12:22.506Z,98863.69
2022-09-28T00:14:48.715Z,98868.06
2022-09-28T00:17:16.749Z,98854.88
2022-09-28T00:19:44.730Z,98858.03
2022-09-28T00:22:11.055Z,98853.22
2022-09-28T00:24:37.261Z,98848.44
2022-09-28T00:27:04.068Z,98849.25
2022-09-28T00:29:31.666Z,98849.25
2022-09-28T00:32:03.001Z,98849.25
2022-09-28T00:34:33.316Z,98843.66
2022-09-28T00:37:00.105Z,98838.88
2022-09-28T00:39:27.048Z,98827.25
2022-09-28T00:41:53.884Z,98833.63
2022-09-28T00:44:25.928Z,98828.44
2022-09-28T00:47:01.535Z,98830.03
2022-09-28T00:49:45.249Z,98832.41
2022-09-28T00:52:14.813Z,98831.19
2022-09-28T00:54:43.126Z,98836.00
2022-09-28T00:57:09.477Z,98830.81
2022-09-28T00:59:35.715Z,98829.63
2022-09-28T01:02:02.474Z,98827.69
2022-09-28T01:04:30.182Z,98828.50
2022-09-28T01:06:57.142Z,98829.31
2022-09-28T01:09:24.948Z,98824.13
2022-09-28T01:11:51.513Z,98824.94
2022-09-28T01:14:19.000Z,98818.19
2022-09-28T01:16:54.994Z,98825.00
2022-09-28T01:19:39.999Z,98819.00
2022-09-28T01:22:06.188Z,98827.41
2022-09-28T01:24:38.498Z,98825.44
2022-09-28T01:27:10.283Z,98821.44
2022-09-28T01:29:36.718Z,98821.06
2022-09-28T01:32:11.613Z,98823.09
2022-09-28T01:34:41.019Z,98831.09
2022-09-28T01:37:09.738Z,98829.94
2022-09-28T01:39:39.446Z,98828.34
2022-09-28T01:42:09.271Z,98829.56
2022-09-28T01:44:39.705Z,98823.56
2022-09-28T01:47:09.188Z,98824.78
2022-09-28T01:49:44.697Z,98825.97
2022-09-28T01:52:15.691Z,98822.78
2022-09-28T01:54:44.545Z,98832.38
2022-09-28T01:57:16.949Z,98822.41
2022-09-28T01:59:47.865Z,98824.00
2022-09-28T02:02:19.421Z,98830.81
2022-09-28T02:04:49.435Z,98818.84
2022-09-28T02:07:20.307Z,98824.06
2022-09-28T02:09:50.069Z,98823.66
2022-09-28T02:12:20.060Z,98822.88
2022-09-28T02:14:48.864Z,98828.09
2022-09-28T02:17:16.091Z,98819.72
2022-09-28T02:19:42.766Z,98819.34
2022-09-28T02:22:23.293Z,98814.56
2022-09-28T02:24:49.589Z,98817.75
2022-09-28T02:27:17.693Z,98811.75
2022-09-28T02:29:43.997Z,98820.56
2022-09-28T02:32:10.468Z,98810.59
2022-09-28T02:34:36.737Z,98814.97
2022-09-28T02:37:03.407Z,98822.56
2022-09-28T02:39:29.616Z,98817.78
2022-09-28T02:41:55.863Z,98822.56
2022-09-28T02:44:35.380Z,98828.56
2022-09-28T02:47:09.990Z,98828.16
2022-09-28T02:49:49.744Z,98822.56
2022-09-28T02:52:36.412Z,98817.00
2022-09-28T02:55:12.842Z,98821.00
2022-09-28T02:57:44.855Z,98825.78
2022-09-28T03:00:14.950Z,98824.19
2022-09-28T03:02:50.057Z,98823.41
2022-09-28T03:05:29.990Z,98819.78
2022-09-28T03:08:03.909Z,98824.59
2022-09-28T03:10:33.458Z,98824.22
2022-09-28T03:13:00.534Z,98832.59
2022-09-28T03:15:28.729Z,98825.41
2022-09-28T03:17:55.705Z,98835.38
2022-09-28T03:20:21.904Z,98830.22
2022-09-28T03:23:05.949Z,98829.38
2022-09-28T03:25:34.318Z,98831.00
2022-09-28T03:28:00.615Z,98833.81
2022-09-28T03:30:26.858Z,98831.00
2022-09-28T03:33:00.146Z,98831.81
2022-09-28T03:35:26.632Z,98831.81
2022-09-28T03:37:55.993Z,98829.00
2022-09-28T03:40:22.405Z,98827.44
2022-09-28T03:42:48.746Z,98830.22
2022-09-28T03:45:15.004Z,98823.81
2022-09-28T03:47:45.073Z,98828.22
2022-09-28T03:50:11.289Z,98832.59
2022-09-28T03:52:37.486Z,98828.59
2022-09-28T03:55:03.807Z,98824.19
2022-09-28T03:57:30.013Z,98824.56
2022-09-28T03:59:56.207Z,98825.78
2022-09-28T04:02:22.454Z,98826.94
2022-09-28T04:04:48.700Z,98824.16
2022-09-28T04:07:14.952Z,98824.56
2022-09-28T04:09:41.477Z,98824.56
2022-09-28T04:12:07.682Z,98825.78
2022-09-28T04:14:33.896Z,98819.38
2022-09-28T04:17:00.115Z,98825.38
2022-09-28T04:19:26.792Z,98824.56
2022-09-28T04:21:53.006Z,98827.38
2022-09-28T04:24:20.213Z,98834.53
2022-09-28T04:26:46.412Z,98822.56
2022-09-28T04:29:15.902Z,98832.16
2022-09-28T04:31:46.697Z,98831.75
2022-09-28T04:34:14.808Z,98830.59
2022-09-28T04:36:41.002Z,98829.00
2022-09-28T04:39:07.261Z,98836.16
2022-09-28T04:41:33.461Z,98842.13
2022-09-28T04:43:59.847Z,98836.56
2022-09-28T04:46:26.201Z,98836.97
2022-09-28T04:48:52.385Z,98838.59
2022-09-28T04:51:18.634Z,98836.59
2022-09-28T04:53:44.874Z,98832.63
2022-09-28T04:56:12.526Z,98837.44
2022-09-28T04:58:39.514Z,98842.63
2022-09-28T05:01:07.133Z,98840.25
2022-09-28T05:03:34.085Z,98845.03
2022-09-28T05:06:01.058Z,98840.25
2022-09-28T05:08:27.546Z,98840.63
2022-09-28T05:11:01.294Z,98842.63
2022-09-28T05:13:28.020Z,98845.00
2022-09-28T05:15:58.188Z,98845.81
2022-09-28T05:18:27.236Z,98843.03
2022-09-28T05:20:53.494Z,98843.81
2022-09-28T05:23:19.747Z,98855.00
2022-09-28T05:25:45.990Z,98849.41
2022-09-28T05:28:12.318Z,98849.41
2022-09-28T05:30:38.606Z,98857.38
2022-09-28T05:33:04.973Z,98847.00
2022-09-28T05:35:31.558Z,98850.59
2022-09-28T05:38:02.177Z,98847.00
2022-09-28T05:40:28.423Z,98847.41
2022-09-28T05:42:58.513Z,98841.03
2022-09-28T05:45:24.724Z,98843.81
2022-09-28T05:47:50.938Z,98848.63
2022-09-28T05:50:17.220Z,98849.78
2022-09-28T05:52:44.269Z,98847.78
2022-09-28T05:55:10.651Z,98842.63
2022-09-28T05:57:36.961Z,98844.63
2022-09-28T06:00:04.544Z,98849.41
2022-09-28T06:02:30.787Z,98850.22
2022-09-28T06:04:57.044Z,98847.84
2022-09-28T06:07:23.761Z,98855.78
2022-09-28T06:09:49.998Z,98859.00
2022-09-28T06:12:16.402Z,98857.38
2022-09-28T06:14:42.617Z,98855.38
2022-09-28T06:17:08.940Z,98862.56
2022-09-28T06:19:35.181Z,98847.78
2022-09-28T06:22:01.389Z,98864.16
2022-09-28T06:24:28.049Z,98857.78
2022-09-28T06:26:54.306Z,98857.75
2022-09-28T06:29:20.563Z,98867.75
2022-09-28T06:31:47.142Z,98866.13
2022-09-28T06:34:13.652Z,98866.94
2022-09-28T06:36:40.288Z,98875.69
2022-09-28T06:39:06.855Z,98873.28
2022-09-28T06:41:33.198Z,98882.88
2022-09-28T06:43:59.530Z,98878.44
2022-09-28T06:46:25.908Z,98884.03
2022-09-28T06:48:52.432Z,98885.22
2022-09-28T06:51:18.673Z,98886.00
2022-09-28T06:53:44.868Z,98891.22
2022-09-28T06:56:11.513Z,98892.38
2022-09-28T06:58:37.786Z,98893.56
2022-09-28T07:01:04.394Z,98893.56
2022-09-28T07:03:30.700Z,98900.75
2022-09-28T07:05:56.938Z,98902.72
2022-09-28T07:08:28.599Z,98900.31
2022-09-28T07:10:57.952Z,98900.31
2022-09-28T07:13:46.364Z,98911.44
2022-09-28T07:16:12.685Z,98916.22
2022-09-28T07:18:39.024Z,98912.22
2022-09-28T07:21:08.078Z,98912.59
2022-09-28T07:23:47.873Z,98905.75
2022-09-28T07:26:21.971Z,98914.53
2022-09-28T07:28:49.652Z,98925.66
2022-09-28T07:31:16.009Z,98918.81
2022-09-28T07:33:42.316Z,98919.56
2022-09-28T07:36:08.715Z,98926.28
2022-09-28T07:38:35.060Z,98923.44
2022-09-28T07:41:14.672Z,98926.19
2022-09-28T07:43:41.446Z,98928.97
2022-09-28T07:46:10.870Z,98931.41
2022-09-28T07:48:39.032Z,98931.78
2022-09-28T07:51:05.334Z,98942.59
2022-09-28T07:53:31.738Z,98941.44
2022-09-28T07:56:09.289Z,98945.84
2022-09-28T07:58:36.940Z,98943.03
2022-09-28T08:01:04.915Z,98945.84
2022-09-28T08:03:31.206Z,98950.63
2022-09-28T08:06:02.085Z,98949.00
2022-09-28T08:08:29.959Z,98950.19
2022-09-28T08:10:57.130Z,98953.34
2022-09-28T08:13:27.064Z,98950.56
2022-09-28T08:15:53.618Z,98955.72
2022-09-28T08:18:20.475Z,98961.72
2022-09-28T08:21:05.615Z,98955.72
2022-09-28T08:23:31.932Z,98963.28
2022-09-28T08:25:58.304Z,98964.47
2022-09-28T08:28:24.774Z,98968.81
2022-09-28T08:30:51.309Z,98965.22
2022-09-28T08:33:20.206Z,98967.22
2022-09-28T08:35:46.698Z,98964.78
2022-09-28T08:38:13.634Z,98969.94
2022-09-28T08:40:58.780Z,98969.88
2022-09-28T08:43:31.164Z,98976.25
2022-09-28T08:45:59.017Z,98973.84
2022-09-28T08:49:01.112Z,98979.41
2022-09-28T08:51:55.039Z,98982.16
2022-09-28T08:54:35.590Z,98984.94
2022-09-28T08:57:05.555Z,98983.34
2022-09-28T08:59:40.210Z,98990.09
2022-09-28T09:02:16.893Z,98985.28
2022-09-28T09:04:43.296Z,98995.28
2022-09-28T09:07:22.431Z,98993.66
2022-09-28T09:10:07.227Z,99001.63
2022-09-28T09:15:38.810Z,99009.66
2022-09-28T09:18:07.818Z,99012.06
2022-09-28T09:20:34.014Z,99026.50
2022-09-28T09:23:12.378Z,99019.72
2022-09-28T09:25:38.764Z,99018.16
2022-09-28T09:28:14.125Z,99021.34
2022-09-28T09:30:57.126Z,99032.63
2022-09-28T09:33:46.730Z,99025.81
2022-09-28T09:36:28.574Z,99029.84
2022-09-28T09:39:13.449Z,99028.63
2022-09-28T09:41:46.601Z,99036.59
2022-09-28T09:44:12.821Z,99042.19
2022-09-28T09:46:47.606Z,99034.16
2022-09-28T09:49:13.792Z,99038.94
2022-09-28T09:51:44.824Z,99039.34
2022-09-28T09:54:30.089Z,99041.28
2022-09-28T09:57:05.698Z,99034.47
2022-09-28T09:59:37.688Z,99036.09
2022-09-28T10:02:13.277Z,99038.03
2022-09-28T10:04:41.488Z,99038.84
2022-09-28T10:07:09.598Z,99044.44
2022-09-28T10:09:45.632Z,99040.44
2022-09-28T10:12:15.814Z,99039.22
2022-09-28T10:14:42.439Z,99044.78
2022-09-28T10:17:11.999Z,99047.97
2022-09-28T10:19:38.202Z,99052.75
2022-09-28T10:22:05.708Z,99044.72
2022-09-28T10:24:36.561Z,99052.25
2022-09-28T10:27:07.947Z,99053.78
2022-09-28T10:29:41.170Z,99051.69
2022-09-28T10:32:17.902Z,99056.00
2022-09-28T10:34:48.732Z,99056.75
2022-09-28T10:37:17.993Z,99062.66
2022-09-28T10:39:53.138Z,99058.19
2022-09-28T10:42:37.264Z,99067.31
2022-09-28T10:45:19.897Z,99062.88
2022-09-28T10:47:46.303Z,99069.66
2022-09-28T10:50:30.868Z,99064.84
2022-09-28T10:53:17.748Z,99070.84
2022-09-28T10:55:55.788Z,99072.44
2022-09-28T10:58:26.909Z,99073.19
2022-09-28T11:00:59.657Z,99069.94
2022-09-28T11:03:27.140Z,99077.97
2022-09-28T11:05:57.756Z,99082.75
2022-09-28T11:08:29.395Z,99079.16
2022-09-28T11:11:11.960Z,99078.38
2022-09-28T11:13:42.871Z,99081.59
2022-09-28T11:16:18.815Z,99079.22
2022-09-28T11:18:45.106Z,99081.22
2022-09-28T11:21:15.971Z,99072.44
2022-09-28T11:23:54.580Z,99086.47
2022-09-28T11:26:21.660Z,99093.34
2022-09-28T11:28:51.430Z,99080.56
2022-09-28T11:31:24.781Z,99082.22
2022-09-28T11:33:51.017Z,99081.84
2022-09-28T11:36:29.651Z,99082.22
2022-09-28T11:38:55.884Z,99076.97
2022-09-28T11:41:22.049Z,99079.78
2022-09-28T11:43:48.242Z,99086.16
2022-09-28T11:46:19.094Z,99091.34
2022-09-28T11:48:47.433Z,99098.09
2022-09-28T11:51:20.242Z,99091.22
2022-09-28T11:53:53.355Z,99093.16
2022-09-28T11:56:37.616Z,99093.47
2022-09-28T11:59:20.409Z,99088.63
2022-09-28T12:01:46.599Z,99090.97
2022-09-28T12:04:19.719Z,99087.69
2022-09-28T12:07:01.361Z,99095.63
2022-09-28T12:09:32.725Z,99099.16
2022-09-28T12:12:02.302Z,99094.22
2022-09-28T12:14:30.874Z,99095.38
2022-09-28T12:17:07.731Z,99096.84
2022-09-28T12:19:41.091Z,99096.34
2022-09-28T12:22:15.799Z,99092.25
2022-09-28T12:24:54.309Z,99083.28
2022-09-28T12:27:23.656Z,99083.59
2022-09-28T12:30:12.975Z,99092.69
2022-09-28T12:32:39.276Z,99089.78
2022-09-28T12:35:19.666Z,99082.47
2022-09-28T12:37:52.660Z,99086.75
2022-09-28T12:40:31.715Z,99082.63
2022-09-28T12:42:58.058Z,99076.84
2022-09-28T12:45:42.966Z,99078.31
2022-09-28T12:48:38.151Z,99077.41
2022-09-28T12:51:14.956Z,99080.53
2022-09-28T12:54:13.836Z,99074.91
2022-09-28T12:56:57.781Z,99074.50
2022-09-28T12:59:29.080Z,99078.47
2022-09-28T13:01:58.400Z,99079.63
2022-09-28T13:04:32.478Z,99080.78
2022-09-28T13:06:58.701Z,99082.34
2022-09-28T13:09:26.065Z,99077.16
2022-09-28T13:11:55.463Z,99077.97
2022-09-28T13:14:37.679Z,99076.72
2022-09-28T13:17:22.979Z,99080.34
2022-09-28T13:19:58.467Z,99075.16
2022-09-28T13:22:30.150Z,99068.69
2022-09-28T13:24:59.352Z,99078.25
2022-09-28T13:27:36.967Z,99068.97
2022-09-28T13:30:06.573Z,99072.91
2022-09-28T13:32:33.774Z,99072.84
2022-09-28T13:35:02.106Z,99062.78
2022-09-28T13:37:29.004Z,99064.34
2022-09-28T13:39:56.768Z,99066.31
2022-09-28T13:42:39.938Z,99073.09
2022-09-28T13:45:24.856Z,99069.84
2022-09-28T13:47:51.512Z,99074.66
2022-09-28T13:50:23.473Z,99072.66
2022-09-28T13:52:56.424Z,99069.84
2022-09-28T13:55:23.168Z,99082.25
2022-09-28T13:57:52.222Z,99071.44
2022-09-28T14:00:23.646Z,99075.06
2022-09-28T14:02:55.945Z,99069.03
2022-09-28T14:05:51.474Z,99075.91
2022-09-28T14:08:23.856Z,99076.41
2022-09-28T14:10:51.723Z,99072.81
2022-09-28T14:13:36.812Z,99067.63
2022-09-28T14:16:18.413Z,99069.97
2022-09-28T14:18:48.383Z,99070.34
2022-09-28T14:21:33.374Z,99066.31
2022-09-28T14:24:13.645Z,99071.50
2022-09-28T14:26:58.705Z,99076.28
2022-09-28T14:29:28.919Z,99074.59
2022-09-28T14:31:56.828Z,99082.53
2022-09-28T14:34:34.189Z,99085.28
2022-09-28T14:37:20.984Z,99089.63
2022-09-28T14:40:06.150Z,99082.31
2022-09-28T14:42:32.540Z,99086.31
2022-09-28T14:45:05.409Z,99079.44
2022-09-28T14:47:33.738Z,99079.78
2022-09-28T14:50:01.258Z,99083.44
2022-09-28T14:52:46.217Z,99085.41
2022-09-28T14:55:17.241Z,99081.81
2022-09-28T14:57:43.610Z,99086.66
2022-09-28T15:00:20.241Z,99082.59
2022-09-28T15:02:48.779Z,99089.06
2022-09-28T15:05:21.447Z,99087.03
2022-09-28T15:07:52.320Z,99091.88
2022-09-28T15:10:32.878Z,99094.31
2022-09-28T15:13:20.682Z,99085.50
2022-09-28T15:15:50.304Z,99094.38
2022-09-28T15:18:35.417Z,99084.34
2022-09-28T15:21:01.914Z,99092.00
2022-09-28T15:23:41.650Z,99093.56
2022-09-28T15:26:19.678Z,99095.25
2022-09-28T15:28:46.012Z,99096.47
2022-09-28T15:31:18.245Z,99094.09
2022-09-28T15:34:03.165Z,99092.50
2022-09-28T15:36:30.582Z,99092.16
2022-09-28T15:41:26.504Z,99099.94
2022-09-28T15:44:11.132Z,99097.63
2022-09-28T15:46:39.412Z,99097.31
2022-09-28T15:49:06.204Z,99095.81
2022-09-28T15:51:44.732Z,99111.94
2022-09-28T15:54:11.029Z,99105.59
2022-09-28T15:56:59.547Z,99113.66
2022-09-28T15:59:29.353Z,99116.53
2022-09-28T16:02:25.860Z,99107.38
2022-09-28T16:04:55.309Z,99119.91
2022-09-28T16:07:33.992Z,99109.09
2022-09-28T16:10:04.585Z,99117.53
2022-09-28T16:12:40.123Z,99125.63
2022-09-28T16:15:14.781Z,99125.69
2022-09-28T16:17:41.598Z,99121.69
2022-09-28T16:20:37.731Z,99127.41
2022-09-28T16:23:30.468Z,99128.66
2022-09-28T16:25:58.951Z,99132.31
2022-09-28T16:28:26.459Z,99127.19
2022-09-28T16:31:00.532Z,99124.81
2022-09-28T16:33:28.309Z,99129.69
2022-09-28T16:35:54.568Z,99133.78
2022-09-28T16:38:20.956Z,99134.63
2022-09-28T16:40:52.662Z,99135.50
2022-09-28T16:43:26.597Z,99137.56
2022-09-28T16:45:57.914Z,99142.06
2022-09-28T16:48:26.675Z,99139.31
2022-09-28T16:50:52.886Z,99148.56
2022-09-28T16:53:37.821Z,99154.25
2022-09-28T16:56:04.632Z,99154.69
2022-09-28T16:58:31.810Z,99165.56
2022-09-28T17:00:58.408Z,99164.81
2022-09-28T17:03:24.972Z,99160.06
2022-09-28T17:05:51.581Z,99164.50
2022-09-28T17:08:19.212Z,99160.94
2022-09-28T17:13:39.249Z,99167.84
2022-09-28T17:16:11.856Z,99176.31
2022-09-28T17:18:39.953Z,99178.72
2022-09-28T17:21:09.647Z,99180.38
2022-09-28T17:23:35.885Z,99175.59
2022-09-28T17:26:02.652Z,99180.84
2022-09-28T17:28:31.261Z,99176.06
2022-09-28T17:30:57.686Z,99181.69
2022-09-28T17:33:24.249Z,99182.56
2022-09-28T17:35:57.559Z,99186.97
2022-09-28T17:38:23.979Z,99191.00
2022-09-28T17:40:50.306Z,99188.63
2022-09-28T17:43:16.641Z,99187.03
2022-09-28T17:45:44.696Z,99195.47
2022-09-28T17:48:12.898Z,99203.06
2022-09-28T17:50:42.150Z,99201.88
2022-09-28T17:53:11.039Z,99200.25
2022-09-28T17:55:37.875Z,99196.66
2022-09-28T17:58:16.678Z,99197.44
2022-09-28T18:00:43.643Z,99198.66
2022-09-28T18:03:14.245Z,99197.09
2022-09-28T18:05:40.738Z,99201.09
2022-09-28T18:08:06.965Z,99205.53
2022-09-28T18:10:33.755Z,99210.78
2022-09-28T18:12:59.956Z,99204.75
2022-09-28T18:15:26.215Z,99216.41
2022-09-28T18:17:52.449Z,99212.44
2022-09-28T18:20:18.678Z,99216.88
2022-09-28T18:22:44.910Z,99223.69
2022-09-28T18:25:11.133Z,99222.50
2022-09-28T18:27:37.442Z,99227.75
2022-09-28T18:30:04.503Z,99220.94
2022-09-28T18:32:30.798Z,99227.41
2022-09-28T18:34:57.014Z,99227.06
2022-09-28T18:37:23.293Z,99227.88
2022-09-28T18:39:49.534Z,99227.91
2022-09-28T18:42:15.864Z,99227.13
2022-09-28T18:44:42.112Z,99237.97
2022-09-28T18:47:08.325Z,99235.59
2022-09-28T18:49:34.598Z,99231.22
2022-09-28T18:52:01.388Z,99234.44
2022-09-28T18:54:27.830Z,99242.06
2022-09-28T18:56:56.145Z,99239.69
2022-09-28T18:59:23.249Z,99233.31
2022-09-28T19:01:49.650Z,99238.09
2022-09-28T19:04:16.188Z,99236.94
2022-09-28T19:06:44.276Z,99234.94
2022-09-28T19:09:10.901Z,99234.19
2022-09-28T19:11:37.106Z,99237.03
2022-09-28T19:14:06.423Z,99233.44
2022-09-28T19:16:33.989Z,99235.47
2022-09-28T19:19:02.529Z,99237.91
2022-09-28T19:21:29.190Z,99243.53
2022-09-28T19:23:55.802Z,99239.16
2022-09-28T19:26:23.381Z,99239.16
2022-09-28T19:28:49.657Z,99240.78
2022-09-28T19:31:16.584Z,99240.00
2022-09-28T19:33:45.224Z,99238.44
2022-09-28T19:36:12.578Z,99248.44
2022-09-28T19:38:39.641Z,99240.44
2022-09-28T19:41:09.573Z,99232.06
2022-09-28T19:43:36.179Z,99238.47
2022-09-28T19:46:04.310Z,99243.69
2022-09-28T19:48:31.520Z,99239.69
2022-09-28T19:50:59.001Z,99243.75
2022-09-28T19:53:26.085Z,99249.72
2022-09-28T19:55:53.781Z,99247.75
2022-09-28T19:58:24.553Z,99248.16
2022-09-28T20:00:51.152Z,99254.16
2022-09-28T20:03:18.467Z,99262.97
2022-09-28T20:05:45.377Z,99265.00
2022-09-28T20:08:12.428Z,99262.56
2022-09-28T20:10:39.117Z,99268.59
2022-09-28T20:13:05.314Z,99267.00
2022-09-28T20:15:31.600Z,99271.81
2022-09-28T20:17:58.618Z,99270.97
2022-09-28T20:20:28.533Z,99271.81
2022-09-28T20:22:55.025Z,99273.78
2022-09-28T20:25:21.297Z,99277.78
2022-09-28T20:27:47.531Z,99277.78
2022-09-28T20:30:13.859Z,99277.78
2022-09-28T20:32:40.055Z,99275.78
2022-09-28T20:35:06.649Z,99283.00
2022-09-28T20:37:33.392Z,99279.38
2022-09-28T20:40:01.439Z,99284.97
2022-09-28T20:42:27.684Z,99286.19
2022-09-28T20:44:53.908Z,99286.97
2022-09-28T20:47:20.111Z,99286.59
2022-09-28T20:49:46.370Z,99285.81
2022-09-28T20:52:12.571Z,99284.22
2022-09-28T20:54:38.773Z,99289.81
2022-09-28T20:57:17.148Z,99286.59
2022-09-28T20:59:44.280Z,99298.22
2022-09-28T21:02:14.998Z,99297.81
2022-09-28T21:04:41.499Z,99293.03
2022-09-28T21:07:08.533Z,99301.03
2022-09-28T21:09:35.080Z,99309.03
2022-09-28T21:12:01.783Z,99299.44
2022-09-28T21:14:28.000Z,99310.22
2022-09-28T21:16:54.204Z,99299.44
2022-09-28T21:19:24.167Z,99307.44
2022-09-28T21:21:50.709Z,99304.66
2022-09-28T21:24:16.986Z,99311.84
2022-09-28T21:26:43.218Z,99303.84
2022-09-28T21:29:13.684Z,99308.25
2022-09-28T21:31:45.590Z,99316.63
2022-09-28T21:34:13.261Z,99326.66
2022-09-28T21:36:39.805Z,99321.47
2022-09-28T21:39:09.622Z,99319.06
2022-09-28T21:41:36.666Z,99321.06
2022-09-28T21:44:02.945Z,99320.25
2022-09-28T21:46:33.980Z,99313.06
2022-09-28T21:49:01.373Z,99313.06
2022-09-28T21:51:28.029Z,99314.66
2022-09-28T21:53:54.234Z,99315.47
2022-09-28T21:56:20.938Z,99325.44
2022-09-28T21:58:47.253Z,99321.84
2022-09-28T22:01:15.350Z,99319.84
2022-09-28T22:03:42.499Z,99321.06
2022-09-28T22:06:09.301Z,99325.84
2022-09-28T22:08:36.144Z,99326.63
2022-09-28T22:11:05.863Z,99331.03
2022-09-28T22:13:36.375Z,99327.03
2022-09-28T22:16:03.170Z,99331.44
2022-09-28T22:18:30.508Z,99330.22
2022-09-28T22:21:10.874Z,99334.63
2022-09-28T22:23:37.827Z,99334.63
2022-09-28T22:26:06.936Z,99337.81
2022-09-28T22:28:33.665Z,99335.03
2022-09-28T22:31:00.034Z,99328.22
2022-09-28T22:33:26.769Z,99326.22
2022-09-28T22:35:53.395Z,99339.78
2022-09-28T22:38:20.513Z,99335.41
2022-09-28T22:40:56.960Z,99340.22
2022-09-28T22:43:23.745Z,99343.41
2022-09-28T22:45:50.146Z,99333.03
2022-09-28T22:48:16.426Z,99344.63
2022-09-28T22:50:50.177Z,99341.81
2022-09-28T22:53:16.435Z,99342.22
2022-09-28T22:55:42.663Z,99349.81
2022-09-28T22:58:08.907Z,99343.84
2022-09-28T23:00:35.318Z,99353.44
2022-09-28T23:03:01.796Z,99349.84
2022-09-28T23:05:28.061Z,99353.44
2022-09-28T23:07:54.293Z,99349.06
2022-09-28T23:10:20.621Z,99352.25
2022-09-28T23:12:46.842Z,99345.84
2022-09-28T23:15:13.651Z,99348.63
2022-09-28T23:17:39.864Z,99339.47
2022-09-28T23:20:06.266Z,99341.47
2022-09-28T23:22:32.475Z,99344.25
2022-09-28T23:24:58.701Z,99352.22
2022-09-28T23:27:24.944Z,99343.84
2022-09-28T23:29:53.706Z,99343.81
2022-09-28T23:32:20.073Z,99349.81
2022-09-28T23:34:46.513Z,99342.59
2022-09-28T23:37:12.732Z,99351.38
2022-09-28T23:39:39.001Z,99348.59
2022-09-28T23:42:05.581Z,99349.75
2022-09-28T23:44:32.615Z,99348.53
2022-09-28T23:46:58.853Z,99353.28
2022-09-28T23:49:25.058Z,99353.69
2022-09-28T23:51:51.286Z,99356.06
2022-09-28T23:54:18.097Z,99353.66
2022-09-28T23:56:44.303Z,99356.41
2022-09-28T23:59:10.541Z,99352.84
